createdAt,value
2023-03-11T00:00:47.723Z,92.95
2023-03-11T00:01:47.569Z,93.05
2023-03-11T00:02:47.526Z,92.95
2023-03-11T00:03:47.526Z,93.05
2023-03-11T00:04:47.500Z,92.85
2023-03-11T00:05:47.547Z,92.85
2023-03-11T00:06:47.492Z,93.05
2023-03-11T00:07:47.467Z,93.16
2023-03-11T00:08:47.457Z,93.27
2023-03-11T00:09:47.459Z,93.05
2023-03-11T00:10:47.417Z,93.05
2023-03-11T00:11:47.410Z,93.16
2023-03-11T00:12:47.395Z,93.27
2023-03-11T00:13:47.398Z,93.27
2023-03-11T00:14:47.375Z,93.27
2023-03-11T00:15:47.366Z,93.27
2023-03-11T00:16:47.421Z,93.16
2023-03-11T00:17:48.455Z,93.37
2023-03-11T00:18:47.342Z,93.05
2023-03-11T00:19:47.307Z,92.33
2023-03-11T00:20:47.293Z,92.54
2023-03-11T00:21:47.286Z,92.64
2023-03-11T00:22:47.290Z,92.54
2023-03-11T00:23:47.275Z,92.85
2023-03-11T00:24:47.249Z,92.95
2023-03-11T00:25:47.229Z,92.85
2023-03-11T00:26:47.226Z,92.95
2023-03-11T00:27:47.207Z,93.05
2023-03-11T00:28:47.209Z,93.05
2023-03-11T00:29:47.181Z,92.74
2023-03-11T00:30:47.269Z,92.43
2023-03-11T00:31:47.166Z,92.64
2023-03-11T00:32:47.270Z,92.74
2023-03-11T00:33:47.150Z,92.64
2023-03-11T00:34:47.122Z,92.74
2023-03-11T00:35:47.139Z,91.81
2023-03-11T00:36:47.091Z,91.18
2023-03-11T00:37:47.074Z,91.28
2023-03-11T00:38:47.183Z,91.39
2023-03-11T00:39:47.055Z,90.77
2023-03-11T00:40:47.042Z,90.25
2023-03-11T00:41:47.038Z,90.25
2023-03-11T00:42:47.020Z,90.04
2023-03-11T00:43:47.013Z,90.25
2023-03-11T00:44:46.999Z,90.14
2023-03-11T00:45:47.096Z,89.62
2023-03-11T00:46:46.975Z,89.10
2023-03-11T00:47:46.953Z,89.31
2023-03-11T00:48:46.953Z,89.31
2023-03-11T00:49:46.925Z,88.58
2023-03-11T00:50:46.916Z,88.37
2023-03-11T00:51:46.900Z,88.48
2023-03-11T00:52:46.888Z,88.48
2023-03-11T00:53:46.887Z,88.06
2023-03-11T00:54:46.874Z,88.27
2023-03-11T00:55:46.853Z,88.48
2023-03-11T00:56:46.836Z,88.58
2023-03-11T00:57:46.836Z,88.17
2023-03-11T00:58:46.840Z,87.85
2023-03-11T00:59:46.792Z,87.96
2023-03-11T01:00:46.793Z,87.75
2023-03-11T01:01:46.867Z,88.06
2023-03-11T01:02:46.763Z,88.27
2023-03-11T01:03:46.778Z,88.06
2023-03-11T01:04:46.780Z,88.17
2023-03-11T01:05:46.719Z,88.06
2023-03-11T01:06:46.713Z,87.75
2023-03-11T01:07:46.693Z,87.96
2023-03-11T01:08:46.719Z,87.65
2023-03-11T01:09:46.676Z,87.23
2023-03-11T01:10:46.690Z,87.43
2023-03-11T01:11:46.644Z,87.65
2023-03-11T01:12:46.630Z,87.65
2023-03-11T01:13:46.616Z,87.54
2023-03-11T01:14:46.638Z,87.43
2023-03-11T01:15:46.615Z,87.65
2023-03-11T01:16:46.580Z,87.75
2023-03-11T01:17:46.567Z,87.85
2023-03-11T01:18:46.559Z,87.33
2023-03-11T01:19:46.564Z,87.23
2023-03-11T01:20:46.530Z,87.02
2023-03-11T01:21:46.515Z,87.33
2023-03-11T01:22:46.520Z,87.33
2023-03-11T01:23:46.496Z,87.12
2023-03-11T01:24:46.502Z,87.54
2023-03-11T01:25:46.473Z,87.65
2023-03-11T01:26:46.483Z,87.65
2023-03-11T01:27:46.443Z,87.23
2023-03-11T01:28:46.428Z,87.43
2023-03-11T01:29:46.433Z,87.23
2023-03-11T01:30:46.438Z,87.12
2023-03-11T01:31:46.386Z,87.02
2023-03-11T01:32:46.474Z,87.23
2023-03-11T01:33:46.369Z,87.43
2023-03-11T01:34:46.375Z,87.33
2023-03-11T01:35:46.403Z,86.81
2023-03-11T01:36:46.332Z,87.12
2023-03-11T01:37:46.307Z,87.43
2023-03-11T01:38:46.306Z,87.33
2023-03-11T01:39:46.299Z,87.65
2023-03-11T01:40:46.278Z,87.54
2023-03-11T01:41:46.256Z,87.65
2023-03-11T01:42:46.268Z,87.43
2023-03-11T01:43:46.241Z,86.91
2023-03-11T01:44:46.242Z,86.81
2023-03-11T01:45:46.207Z,87.12
2023-03-11T01:46:46.231Z,86.91
2023-03-11T01:47:46.193Z,86.29
2023-03-11T01:48:46.173Z,86.40
2023-03-11T01:49:46.172Z,86.91
2023-03-11T01:50:46.148Z,87.19
2023-03-11T01:51:46.131Z,86.81
2023-03-11T01:52:46.128Z,86.71
2023-03-11T01:53:46.117Z,87.23
2023-03-11T01:54:46.112Z,87.43
2023-03-11T01:55:46.078Z,87.43
2023-03-11T01:56:46.082Z,87.43
2023-03-11T01:57:46.054Z,87.33
2023-03-11T01:58:46.069Z,87.33
2023-03-11T01:59:46.044Z,87.23
2023-03-11T02:00:46.019Z,87.75
2023-03-11T02:01:46.106Z,87.96
2023-03-11T02:02:45.994Z,88.06
2023-03-11T02:03:45.980Z,88.06
2023-03-11T02:04:46.006Z,87.43
2023-03-11T02:05:45.953Z,87.43
2023-03-11T02:06:45.950Z,87.54
2023-03-11T02:07:45.927Z,87.65
2023-03-11T02:08:45.918Z,87.75
2023-03-11T02:09:45.903Z,87.85
2023-03-11T02:10:45.914Z,87.96
2023-03-11T02:11:45.877Z,88.27
2023-03-11T02:12:45.874Z,88.17
2023-03-11T02:13:45.861Z,88.17
2023-03-11T02:14:45.860Z,88.17
2023-03-11T02:15:45.910Z,88.17
2023-03-11T02:16:45.816Z,88.06
2023-03-11T02:17:45.802Z,88.37
2023-03-11T02:18:45.793Z,88.48
2023-03-11T02:19:45.783Z,88.68
2023-03-11T02:20:45.782Z,88.89
2023-03-11T02:21:45.754Z,87.96
2023-03-11T02:22:45.754Z,87.89
2023-03-11T02:23:45.735Z,88.17
2023-03-11T02:24:45.724Z,88.58
2023-03-11T02:25:45.734Z,88.37
2023-03-11T02:26:45.695Z,88.42
2023-03-11T02:27:45.749Z,88.48
2023-03-11T02:28:45.677Z,88.93
2023-03-11T02:29:45.658Z,89.14
2023-03-11T02:30:45.694Z,89.14
2023-03-11T02:31:45.693Z,89.35
2023-03-11T02:32:45.707Z,89.35
2023-03-11T02:33:45.622Z,89.35
2023-03-11T02:34:45.605Z,89.56
2023-03-11T02:35:45.640Z,89.76
2023-03-11T02:36:45.576Z,89.56
2023-03-11T02:37:45.610Z,89.87
2023-03-11T02:38:45.546Z,89.98
2023-03-11T02:39:45.534Z,90.01
2023-03-11T02:40:45.540Z,90.19
2023-03-11T02:41:45.510Z,90.39
2023-03-11T02:42:45.496Z,90.70
2023-03-11T02:43:45.482Z,90.75
2023-03-11T02:44:45.464Z,90.64
2023-03-11T02:45:45.466Z,90.85
2023-03-11T02:46:45.497Z,91.16
2023-03-11T02:47:45.435Z,91.47
2023-03-11T02:48:45.411Z,91.16
2023-03-11T02:49:45.405Z,91.06
2023-03-11T02:50:45.406Z,91.27
2023-03-11T02:51:45.370Z,91.27
2023-03-11T02:52:45.376Z,91.16
2023-03-11T02:53:45.345Z,91.16
2023-03-11T02:54:45.336Z,91.06
2023-03-11T02:55:45.364Z,91.06
2023-03-11T02:56:45.315Z,91.16
2023-03-11T02:57:45.294Z,91.16
2023-03-11T02:58:45.291Z,91.27
2023-03-11T02:59:45.280Z,91.37
2023-03-11T03:00:45.333Z,91.47
2023-03-11T03:01:45.244Z,91.68
2023-03-11T03:02:45.250Z,91.78
2023-03-11T03:03:45.241Z,92.00
2023-03-11T03:04:45.205Z,92.00
2023-03-11T03:05:45.192Z,91.83
2023-03-11T03:06:45.198Z,91.41
2023-03-11T03:07:45.165Z,91.37
2023-03-11T03:08:45.153Z,91.58
2023-03-11T03:09:45.143Z,91.68
2023-03-11T03:10:45.133Z,91.31
2023-03-11T03:11:45.138Z,91.16
2023-03-11T03:12:45.107Z,90.95
2023-03-11T03:13:45.092Z,91.06
2023-03-11T03:14:45.081Z,90.95
2023-03-11T03:15:45.069Z,90.85
2023-03-11T03:16:45.277Z,90.75
2023-03-11T03:17:45.240Z,90.64
2023-03-11T03:18:45.064Z,90.54
2023-03-11T03:19:45.018Z,90.64
2023-03-11T03:20:45.006Z,90.68
2023-03-11T03:21:45.005Z,90.75
2023-03-11T03:22:44.978Z,90.58
2023-03-11T03:23:44.972Z,90.33
2023-03-11T03:24:44.958Z,90.22
2023-03-11T03:25:44.940Z,90.44
2023-03-11T03:26:44.944Z,90.79
2023-03-11T03:27:44.921Z,90.44
2023-03-11T03:28:44.903Z,90.44
2023-03-11T03:29:44.889Z,90.37
2023-03-11T03:30:44.877Z,90.37
2023-03-11T03:31:44.916Z,90.44
2023-03-11T03:32:44.939Z,90.58
2023-03-11T03:33:44.839Z,91.00
2023-03-11T03:34:44.854Z,91.10
2023-03-11T03:35:44.835Z,91.10
2023-03-11T03:36:44.817Z,91.31
2023-03-11T03:37:45.706Z,91.41
2023-03-11T03:38:44.779Z,91.10
2023-03-11T03:39:44.772Z,91.10
2023-03-11T03:40:44.753Z,91.20
2023-03-11T03:41:44.764Z,91.31
2023-03-11T03:42:44.735Z,91.06
2023-03-11T03:43:44.716Z,90.85
2023-03-11T03:44:44.705Z,90.75
2023-03-11T03:45:44.734Z,90.44
2023-03-11T03:46:44.688Z,90.44
2023-03-11T03:47:44.664Z,90.33
2023-03-11T03:48:44.654Z,90.12
2023-03-11T03:49:44.647Z,90.44
2023-03-11T03:50:44.670Z,90.44
2023-03-11T03:51:44.639Z,90.44
2023-03-11T03:52:44.605Z,90.22
2023-03-11T03:53:44.585Z,90.12
2023-03-11T03:54:44.575Z,90.12
2023-03-11T03:55:44.574Z,89.91
2023-03-11T03:56:44.574Z,89.91
2023-03-11T03:57:44.555Z,89.87
2023-03-11T03:58:44.562Z,89.60
2023-03-11T03:59:44.544Z,89.91
2023-03-11T04:00:44.550Z,89.81
2023-03-11T04:01:44.545Z,89.91
2023-03-11T04:02:44.527Z,90.01
2023-03-11T04:03:44.617Z,90.01
2023-03-11T04:04:44.455Z,89.91
2023-03-11T04:05:44.440Z,89.81
2023-03-11T04:06:44.523Z,89.81
2023-03-11T04:07:44.417Z,89.91
2023-03-11T04:08:44.412Z,89.91
2023-03-11T04:09:44.398Z,89.81
2023-03-11T04:10:44.381Z,89.91
2023-03-11T04:11:44.387Z,90.01
2023-03-11T04:12:44.370Z,90.12
2023-03-11T04:13:44.348Z,90.01
2023-03-11T04:14:44.333Z,90.12
2023-03-11T04:15:44.317Z,89.91
2023-03-11T04:16:44.334Z,89.81
2023-03-11T04:17:44.310Z,89.81
2023-03-11T04:18:44.290Z,89.81
2023-03-11T04:19:44.267Z,89.70
2023-03-11T04:20:44.264Z,89.39
2023-03-11T04:21:44.237Z,89.18
2023-03-11T04:22:44.263Z,88.98
2023-03-11T04:23:44.217Z,88.87
2023-03-11T04:24:44.200Z,88.66
2023-03-11T04:25:44.189Z,88.76
2023-03-11T04:26:44.184Z,88.66
2023-03-11T04:27:44.176Z,88.35
2023-03-11T04:28:44.150Z,88.14
2023-03-11T04:29:44.143Z,88.24
2023-03-11T04:30:44.154Z,88.24
2023-03-11T04:31:44.109Z,88.35
2023-03-11T04:32:44.146Z,88.45
2023-03-11T04:33:44.082Z,88.45
2023-03-11T04:34:44.076Z,88.45
2023-03-11T04:35:44.161Z,88.45
2023-03-11T04:36:44.044Z,88.45
2023-03-11T04:37:44.050Z,88.66
2023-03-11T04:38:44.035Z,88.66
2023-03-11T04:39:44.013Z,88.87
2023-03-11T04:40:43.993Z,88.98
2023-03-11T04:41:43.995Z,89.08
2023-03-11T04:42:43.991Z,89.18
2023-03-11T04:43:43.958Z,89.29
2023-03-11T04:44:43.944Z,89.43
2023-03-11T04:45:43.943Z,89.32
2023-03-11T04:46:43.924Z,89.12
2023-03-11T04:47:43.918Z,88.91
2023-03-11T04:48:43.908Z,89.12
2023-03-11T04:49:43.876Z,89.12
2023-03-11T04:50:43.894Z,89.12
2023-03-11T04:51:43.855Z,88.91
2023-03-11T04:52:43.860Z,88.81
2023-03-11T04:53:43.824Z,88.70
2023-03-11T04:54:43.833Z,88.70
2023-03-11T04:55:43.804Z,88.70
2023-03-11T04:56:43.784Z,88.81
2023-03-11T04:57:43.793Z,88.91
2023-03-11T04:58:43.765Z,88.91
2023-03-11T04:59:43.763Z,88.87
2023-03-11T05:00:43.744Z,88.91
2023-03-11T05:01:43.782Z,88.98
2023-03-11T05:02:43.763Z,88.87
2023-03-11T05:03:43.698Z,88.91
2023-03-11T05:04:43.722Z,88.87
2023-03-11T05:05:43.679Z,88.87
2023-03-11T05:06:43.664Z,89.22
2023-03-11T05:07:43.665Z,89.32
2023-03-11T05:08:43.643Z,89.01
2023-03-11T05:09:43.628Z,89.01
2023-03-11T05:10:43.635Z,89.12
2023-03-11T05:11:43.614Z,88.91
2023-03-11T05:12:43.602Z,88.91
2023-03-11T05:13:43.582Z,88.91
2023-03-11T05:14:43.579Z,88.91
2023-03-11T05:15:43.707Z,88.91
2023-03-11T05:16:43.538Z,88.45
2023-03-11T05:17:43.530Z,88.45
2023-03-11T05:18:43.526Z,88.35
2023-03-11T05:19:43.509Z,88.45
2023-03-11T05:20:43.502Z,88.87
2023-03-11T05:21:43.480Z,88.98
2023-03-11T05:22:43.493Z,88.87
2023-03-11T05:23:43.532Z,88.98
2023-03-11T05:24:43.443Z,88.87
2023-03-11T05:25:43.421Z,88.56
2023-03-11T05:26:43.435Z,88.76
2023-03-11T05:27:43.406Z,88.66
2023-03-11T05:28:43.410Z,88.56
2023-03-11T05:29:43.393Z,88.45
2023-03-11T05:30:43.362Z,88.66
2023-03-11T05:31:43.357Z,88.87
2023-03-11T05:32:43.514Z,88.76
2023-03-11T05:33:43.356Z,88.76
2023-03-11T05:34:43.350Z,88.66
2023-03-11T05:35:43.388Z,88.35
2023-03-11T05:36:43.286Z,88.14
2023-03-11T05:37:43.281Z,88.24
2023-03-11T05:38:43.277Z,88.24
2023-03-11T05:39:43.271Z,88.04
2023-03-11T05:40:43.239Z,87.93
2023-03-11T05:41:43.229Z,87.73
2023-03-11T05:42:43.234Z,87.62
2023-03-11T05:43:43.217Z,87.52
2023-03-11T05:44:43.188Z,87.41
2023-03-11T05:45:43.177Z,87.20
2023-03-11T05:46:43.343Z,87.30
2023-03-11T05:47:43.151Z,87.20
2023-03-11T05:48:43.150Z,87.20
2023-03-11T05:49:43.131Z,87.20
2023-03-11T05:50:43.110Z,87.20
2023-03-11T05:51:43.106Z,87.20
2023-03-11T05:52:43.102Z,87.20
2023-03-11T05:53:43.088Z,87.20
2023-03-11T05:54:43.065Z,87.20
2023-03-11T05:55:43.050Z,87.06
2023-03-11T05:56:43.048Z,86.85
2023-03-11T05:57:43.020Z,86.79
2023-03-11T05:58:43.047Z,86.99
2023-03-11T05:59:43.001Z,87.30
2023-03-11T06:00:42.988Z,87.41
2023-03-11T06:01:42.986Z,87.41
2023-03-11T06:02:42.965Z,87.41
2023-03-11T06:03:43.010Z,87.52
2023-03-11T06:04:43.055Z,87.73
2023-03-11T06:05:42.924Z,87.73
2023-03-11T06:06:42.910Z,87.52
2023-03-11T06:07:42.895Z,87.62
2023-03-11T06:08:42.898Z,87.83
2023-03-11T06:09:42.877Z,87.73
2023-03-11T06:10:42.859Z,87.73
2023-03-11T06:11:42.847Z,87.62
2023-03-11T06:12:42.833Z,87.62
2023-03-11T06:13:42.847Z,87.73
2023-03-11T06:14:42.849Z,87.83
2023-03-11T06:15:42.799Z,87.52
2023-03-11T06:16:42.785Z,87.62
2023-03-11T06:17:42.768Z,87.93
2023-03-11T06:18:42.780Z,88.14
2023-03-11T06:19:42.748Z,87.89
2023-03-11T06:20:42.725Z,87.79
2023-03-11T06:21:42.731Z,87.65
2023-03-11T06:22:42.719Z,87.02
2023-03-11T06:23:42.704Z,86.46
2023-03-11T06:24:42.674Z,86.25
2023-03-11T06:25:42.673Z,85.52
2023-03-11T06:26:42.655Z,85.38
2023-03-11T06:27:42.639Z,85.17
2023-03-11T06:28:42.649Z,84.96
2023-03-11T06:29:42.620Z,85.38
2023-03-11T06:30:42.633Z,85.28
2023-03-11T06:31:42.646Z,85.49
2023-03-11T06:32:42.621Z,85.90
2023-03-11T06:33:42.585Z,85.73
2023-03-11T06:34:42.553Z,85.80
2023-03-11T06:35:42.588Z,85.80
2023-03-11T06:36:42.537Z,85.31
2023-03-11T06:37:42.512Z,85.42
2023-03-11T06:38:42.497Z,85.73
2023-03-11T06:39:42.506Z,85.83
2023-03-11T06:40:42.481Z,85.21
2023-03-11T06:41:42.464Z,85.21
2023-03-11T06:42:42.448Z,85.14
2023-03-11T06:43:42.441Z,85.25
2023-03-11T06:44:42.439Z,85.14
2023-03-11T06:45:42.477Z,85.25
2023-03-11T06:46:42.418Z,85.35
2023-03-11T06:47:42.391Z,85.35
2023-03-11T06:48:42.380Z,85.46
2023-03-11T06:49:42.384Z,85.67
2023-03-11T06:50:42.352Z,85.14
2023-03-11T06:51:42.333Z,85.25
2023-03-11T06:52:42.325Z,84.94
2023-03-11T06:53:42.311Z,85.14
2023-03-11T06:54:42.314Z,85.00
2023-03-11T06:55:42.294Z,84.90
2023-03-11T06:56:42.270Z,84.90
2023-03-11T06:57:42.278Z,85.00
2023-03-11T06:58:42.256Z,85.21
2023-03-11T06:59:42.248Z,84.80
2023-03-11T07:00:42.804Z,84.80
2023-03-11T07:01:42.208Z,85.00
2023-03-11T07:02:42.238Z,84.31
2023-03-11T07:03:42.203Z,84.31
2023-03-11T07:04:42.189Z,84.42
2023-03-11T07:05:42.161Z,84.77
2023-03-11T07:06:42.154Z,85.46
2023-03-11T07:07:42.133Z,85.98
2023-03-11T07:08:42.129Z,85.67
2023-03-11T07:09:42.144Z,85.04
2023-03-11T07:10:42.094Z,85.25
2023-03-11T07:11:42.089Z,85.46
2023-03-11T07:12:42.075Z,85.04
2023-03-11T07:13:42.084Z,84.73
2023-03-11T07:14:42.062Z,84.73
2023-03-11T07:15:42.038Z,84.21
2023-03-11T07:16:42.044Z,83.90
2023-03-11T07:17:42.011Z,83.90
2023-03-11T07:18:42.017Z,83.58
2023-03-11T07:19:42.000Z,83.58
2023-03-11T07:20:41.978Z,83.27
2023-03-11T07:21:41.969Z,82.96
2023-03-11T07:22:41.947Z,83.90
2023-03-11T07:23:41.938Z,84.11
2023-03-11T07:24:41.939Z,84.00
2023-03-11T07:25:41.912Z,83.80
2023-03-11T07:26:44.204Z,83.80
2023-03-11T07:27:41.884Z,83.37
2023-03-11T07:28:41.870Z,83.80
2023-03-11T07:29:41.871Z,83.37
2023-03-11T07:30:41.847Z,82.54
2023-03-11T07:31:41.862Z,82.34
2023-03-11T07:32:41.850Z,82.65
2023-03-11T07:33:41.801Z,82.13
2023-03-11T07:34:41.829Z,81.98
2023-03-11T07:35:41.846Z,81.67
2023-03-11T07:36:41.764Z,81.67
2023-03-11T07:37:41.758Z,81.88
2023-03-11T07:38:41.962Z,81.67
2023-03-11T07:39:41.749Z,81.32
2023-03-11T07:40:41.718Z,80.80
2023-03-11T07:41:41.707Z,80.87
2023-03-11T07:42:41.696Z,80.56
2023-03-11T07:43:41.676Z,79.90
2023-03-11T07:44:41.676Z,80.11
2023-03-11T07:45:41.724Z,79.86
2023-03-11T07:46:41.639Z,79.24
2023-03-11T07:47:41.630Z,79.24
2023-03-11T07:48:41.607Z,79.03
2023-03-11T07:49:41.622Z,78.92
2023-03-11T07:50:41.608Z,79.41
2023-03-11T07:51:41.576Z,79.41
2023-03-11T07:52:41.562Z,78.78
2023-03-11T07:53:41.549Z,77.92
2023-03-11T07:54:41.548Z,75.60
2023-03-11T07:55:41.526Z,71.00
2023-03-11T07:56:41.515Z,69.38
2023-03-11T07:57:41.495Z,70.75
2023-03-11T07:58:41.486Z,72.36
2023-03-11T07:59:41.497Z,73.94
2023-03-11T08:00:41.460Z,75.19
2023-03-11T08:01:41.572Z,75.26
2023-03-11T08:02:41.465Z,74.40
2023-03-11T08:03:41.478Z,74.43
2023-03-11T08:04:41.422Z,73.60
2023-03-11T08:05:41.394Z,71.72
2023-03-11T08:06:41.397Z,67.99
2023-03-11T08:07:41.377Z,66.79
2023-03-11T08:08:41.353Z,66.82
2023-03-11T08:09:41.342Z,65.19
2023-03-11T08:10:41.344Z,64.31
2023-03-11T08:11:41.316Z,64.09
2023-03-11T08:12:41.314Z,66.81
2023-03-11T08:13:41.299Z,69.10
2023-03-11T08:14:41.274Z,72.53
2023-03-11T08:15:41.431Z,74.43
2023-03-11T08:16:41.322Z,75.09
2023-03-11T08:17:41.236Z,75.78
2023-03-11T08:18:41.223Z,78.12
2023-03-11T08:19:41.212Z,78.85
2023-03-11T08:20:41.219Z,78.27
2023-03-11T08:21:41.184Z,78.58
2023-03-11T08:22:55.510Z,78.47
2023-03-11T08:23:42.158Z,78.27
2023-03-11T08:24:41.141Z,77.99
2023-03-11T08:25:41.144Z,78.16
2023-03-11T08:26:41.118Z,78.02
2023-03-11T08:27:41.103Z,76.88
2023-03-11T08:28:41.089Z,77.15
2023-03-11T08:29:41.078Z,76.57
2023-03-11T08:30:42.082Z,75.81
2023-03-11T08:31:41.062Z,74.71
2023-03-11T08:32:41.139Z,75.22
2023-03-11T08:33:41.027Z,75.19
2023-03-11T08:34:41.019Z,73.67
2023-03-11T08:35:41.061Z,73.67
2023-03-11T08:36:40.990Z,74.08
2023-03-11T08:37:40.980Z,73.98
2023-03-11T08:38:41.024Z,73.88
2023-03-11T08:39:40.953Z,74.74
2023-03-11T08:40:40.953Z,74.53
2023-03-11T08:41:40.933Z,74.95
2023-03-11T08:42:40.905Z,75.57
2023-03-11T08:43:40.906Z,74.77
2023-03-11T08:44:40.885Z,74.71
2023-03-11T08:45:40.909Z,75.09
2023-03-11T08:46:40.910Z,74.67
2023-03-11T08:47:40.850Z,74.81
2023-03-11T08:48:40.832Z,75.74
2023-03-11T08:49:40.823Z,75.43
2023-03-11T08:50:52.802Z,75.22
2023-03-11T08:51:40.815Z,75.36
2023-03-11T08:52:40.778Z,75.36
2023-03-11T08:53:40.772Z,75.95
2023-03-11T08:54:40.800Z,75.40
2023-03-11T08:55:40.740Z,74.05
2023-03-11T08:56:40.743Z,73.16
2023-03-11T08:57:40.718Z,71.57
2023-03-11T08:58:40.741Z,71.88
2023-03-11T08:59:40.692Z,71.88
2023-03-11T09:00:40.679Z,71.64
2023-03-11T09:01:40.684Z,71.09
2023-03-11T09:02:40.719Z,70.30
2023-03-11T09:03:40.638Z,70.54
2023-03-11T09:04:40.622Z,70.78
2023-03-11T09:05:40.701Z,70.92
2023-03-11T09:06:40.616Z,71.67
2023-03-11T09:07:40.585Z,71.81
2023-03-11T09:08:40.573Z,71.88
2023-03-11T09:09:40.556Z,69.06
2023-03-11T09:10:40.565Z,67.17
2023-03-11T09:11:40.553Z,65.80
2023-03-11T09:12:40.520Z,64.90
2023-03-11T09:13:40.505Z,61.70
2023-03-11T09:14:40.493Z,60.84
2023-03-11T09:15:40.476Z,57.76
2023-03-11T09:16:40.479Z,54.23
2023-03-11T09:17:40.453Z,53.31
2023-03-11T09:18:40.465Z,51.28
2023-03-11T09:19:40.427Z,49.58
2023-03-11T09:20:40.423Z,45.78
2023-03-11T09:21:40.420Z,46.03
2023-03-11T09:22:40.391Z,48.04
2023-03-11T09:23:43.524Z,46.35
2023-03-11T09:24:40.364Z,45.84
2023-03-11T09:25:41.132Z,44.44
2023-03-11T09:26:40.374Z,44.74
2023-03-11T09:27:40.330Z,47.13
2023-03-11T09:28:40.307Z,46.59
2023-03-11T09:29:40.296Z,47.30
2023-03-11T09:30:40.285Z,47.63
2023-03-11T09:31:40.322Z,48.93
2023-03-11T09:32:40.313Z,52.11
2023-03-11T09:33:40.242Z,55.82
2023-03-11T09:34:40.234Z,58.26
2023-03-11T09:35:40.303Z,58.80
2023-03-11T09:36:40.230Z,60.58
2023-03-11T09:37:40.197Z,59.86
2023-03-11T09:38:40.181Z,58.68
2023-03-11T09:39:40.164Z,59.84
2023-03-11T09:40:40.166Z,60.82
2023-03-11T09:41:55.306Z,61.78
2023-03-11T09:42:40.152Z,60.75
2023-03-11T09:43:40.117Z,61.88
2023-03-11T09:44:40.110Z,62.19
2023-03-11T09:45:40.099Z,62.26
2023-03-11T09:46:40.231Z,61.75
2023-03-11T09:47:40.068Z,62.19
2023-03-11T09:48:40.081Z,63.15
2023-03-11T09:49:40.054Z,63.67
2023-03-11T09:50:40.028Z,64.07
2023-03-11T09:51:40.051Z,64.07
2023-03-11T09:52:40.001Z,64.11
2023-03-11T09:53:39.991Z,64.24
2023-03-11T09:54:39.973Z,64.37
2023-03-11T09:55:39.959Z,65.30
2023-03-11T09:56:39.959Z,65.82
2023-03-11T09:57:39.939Z,65.75
2023-03-11T09:58:39.968Z,65.72
2023-03-11T09:59:39.907Z,65.75
2023-03-11T10:00:39.898Z,66.91
2023-03-11T10:01:39.906Z,66.94
2023-03-11T10:02:40.042Z,67.36
2023-03-11T10:03:40.022Z,67.36
2023-03-11T10:04:39.849Z,67.57
2023-03-11T10:05:39.824Z,67.49
2023-03-11T10:06:39.853Z,68.32
2023-03-11T10:07:39.802Z,68.74
2023-03-11T10:08:39.784Z,68.01
2023-03-11T10:09:39.777Z,67.39
2023-03-11T10:10:39.765Z,67.70
2023-03-11T10:11:39.775Z,68.08
2023-03-11T10:12:39.750Z,67.98
2023-03-11T10:13:39.725Z,68.08
2023-03-11T10:14:39.737Z,68.19
2023-03-11T10:15:39.836Z,67.85
2023-03-11T10:16:39.730Z,67.12
2023-03-11T10:17:39.702Z,66.39
2023-03-11T10:18:39.655Z,67.12
2023-03-11T10:19:39.644Z,65.67
2023-03-11T10:20:39.640Z,64.92
2023-03-11T10:21:39.635Z,64.09
2023-03-11T10:22:39.618Z,61.71
2023-03-11T10:23:39.591Z,61.30
2023-03-11T10:24:39.594Z,61.20
2023-03-11T10:25:39.566Z,61.79
2023-03-11T10:26:39.550Z,62.17
2023-03-11T10:27:41.888Z,62.27
2023-03-11T10:28:39.532Z,62.79
2023-03-11T10:29:39.511Z,63.62
2023-03-11T10:30:39.552Z,64.14
2023-03-11T10:31:39.588Z,63.39
2023-03-11T10:32:39.586Z,62.43
2023-03-11T10:33:39.464Z,62.43
2023-03-11T10:34:39.462Z,61.68
2023-03-11T10:35:39.674Z,61.00
2023-03-11T10:36:39.423Z,60.17
2023-03-11T10:37:49.183Z,57.34
2023-03-11T10:38:39.401Z,57.59
2023-03-11T10:39:39.397Z,57.05
2023-03-11T10:40:39.379Z,55.49
2023-03-11T10:41:39.357Z,54.74
2023-03-11T10:42:39.359Z,52.42
2023-03-11T10:43:39.329Z,51.75
2023-03-11T10:44:39.316Z,51.86
2023-03-11T10:45:39.308Z,50.63
2023-03-11T10:46:39.309Z,50.73
2023-03-11T10:47:39.291Z,50.01
2023-03-11T10:48:39.266Z,50.32
2023-03-11T10:49:39.257Z,51.04
2023-03-11T10:50:39.239Z,51.08
2023-03-11T10:51:39.233Z,50.39
2023-03-11T10:52:39.234Z,51.67
2023-03-11T10:53:39.200Z,50.04
2023-03-11T10:54:39.189Z,50.04
2023-03-11T10:55:39.175Z,49.50
2023-03-11T10:56:39.170Z,47.52
2023-03-11T10:57:39.169Z,46.59
2023-03-11T10:58:39.137Z,46.19
2023-03-11T10:59:39.137Z,44.65
2023-03-11T11:00:39.116Z,44.12
2023-03-11T11:01:39.218Z,43.82
2023-03-11T11:02:39.143Z,42.59
2023-03-11T11:03:39.073Z,43.47
2023-03-11T11:04:39.059Z,41.98
2023-03-11T11:05:39.053Z,40.68
2023-03-11T11:06:39.041Z,39.90
2023-03-11T11:07:39.033Z,40.67
2023-03-11T11:08:39.011Z,42.65
2023-03-11T11:09:39.006Z,44.00
2023-03-11T11:10:38.983Z,46.42
2023-03-11T11:11:38.964Z,48.18
2023-03-11T11:12:38.969Z,47.77
2023-03-11T11:13:38.940Z,48.03
2023-03-11T11:14:38.932Z,48.85
2023-03-11T11:15:38.916Z,47.13
2023-03-11T11:16:39.014Z,46.37
2023-03-11T11:17:38.907Z,46.21
2023-03-11T11:18:38.902Z,44.71
2023-03-11T11:19:38.866Z,42.94
2023-03-11T11:20:38.852Z,41.78
2023-03-11T11:21:38.845Z,41.63
2023-03-11T11:22:38.826Z,40.48
2023-03-11T11:23:38.834Z,40.20
2023-03-11T11:24:38.800Z,38.27
2023-03-11T11:25:38.810Z,37.85
2023-03-11T11:26:38.777Z,39.95
2023-03-11T11:27:38.766Z,39.47
2023-03-11T11:28:38.778Z,38.93
2023-03-11T11:29:38.735Z,40.20
2023-03-11T11:30:38.743Z,37.84
2023-03-11T11:31:38.707Z,35.19
2023-03-11T11:32:38.866Z,35.86
2023-03-11T11:33:38.696Z,38.56
2023-03-11T11:34:38.697Z,41.64
2023-03-11T11:35:38.715Z,41.60
2023-03-11T11:36:38.649Z,40.81
2023-03-11T11:37:38.640Z,39.34
2023-03-11T11:38:38.633Z,39.60
2023-03-11T11:39:38.603Z,40.20
2023-03-11T11:40:38.595Z,41.09
2023-03-11T11:41:38.579Z,44.29
2023-03-11T11:42:38.562Z,43.82
2023-03-11T11:43:38.568Z,44.78
2023-03-11T11:44:38.549Z,45.03
2023-03-11T11:45:38.523Z,47.00
2023-03-11T11:46:38.524Z,45.91
2023-03-11T11:47:38.505Z,47.70
2023-03-11T11:48:38.505Z,48.83
2023-03-11T11:49:38.474Z,49.14
2023-03-11T11:50:38.483Z,50.14
2023-03-11T11:51:38.447Z,49.07
2023-03-11T11:52:38.430Z,49.54
2023-03-11T11:53:38.437Z,51.23
2023-03-11T11:54:38.404Z,52.89
2023-03-11T11:55:38.414Z,53.43
2023-03-11T11:56:38.378Z,54.28
2023-03-11T11:57:38.368Z,54.59
2023-03-11T11:58:38.366Z,54.59
2023-03-11T11:59:38.355Z,55.21
2023-03-11T12:00:38.324Z,55.54
2023-03-11T12:01:38.310Z,56.10
2023-03-11T12:02:38.303Z,56.75
2023-03-11T12:03:38.371Z,56.98
2023-03-11T12:04:38.275Z,57.29
2023-03-11T12:05:38.335Z,57.81
2023-03-11T12:06:38.287Z,57.60
2023-03-11T12:07:38.233Z,57.91
2023-03-11T12:08:38.408Z,57.83
2023-03-11T12:09:38.212Z,58.14
2023-03-11T12:10:38.198Z,58.69
2023-03-11T12:11:39.370Z,58.48
2023-03-11T12:12:38.170Z,58.69
2023-03-11T12:13:38.175Z,58.92
2023-03-11T12:14:38.173Z,59.64
2023-03-11T12:15:38.149Z,59.95
2023-03-11T12:16:38.120Z,60.26
2023-03-11T12:17:38.098Z,59.95
2023-03-11T12:18:38.107Z,60.26
2023-03-11T12:19:38.075Z,60.67
2023-03-11T12:20:38.067Z,60.80
2023-03-11T12:21:38.051Z,60.36
2023-03-11T12:22:38.080Z,60.57
2023-03-11T12:23:38.069Z,60.64
2023-03-11T12:24:38.020Z,60.54
2023-03-11T12:25:38.009Z,60.75
2023-03-11T12:26:38.001Z,60.33
2023-03-11T12:27:37.988Z,59.58
2023-03-11T12:28:37.985Z,60.02
2023-03-11T12:29:37.962Z,56.95
2023-03-11T12:30:37.959Z,52.70
2023-03-11T12:31:38.024Z,49.76
2023-03-11T12:32:37.994Z,50.63
2023-03-11T12:33:37.912Z,50.98
2023-03-11T12:34:37.878Z,50.70
2023-03-11T12:35:37.932Z,50.90
2023-03-11T12:36:37.860Z,51.67
2023-03-11T12:37:37.841Z,53.05
2023-03-11T12:38:37.853Z,53.10
2023-03-11T12:39:37.835Z,53.33
2023-03-11T12:40:37.799Z,53.35
2023-03-11T12:41:37.800Z,54.10
2023-03-11T12:42:37.775Z,54.10
2023-03-11T12:43:37.763Z,54.10
2023-03-11T12:44:37.781Z,54.61
2023-03-11T12:45:37.734Z,54.82
2023-03-11T12:46:37.727Z,55.87
2023-03-11T12:47:37.704Z,54.77
2023-03-11T12:48:37.696Z,55.33
2023-03-11T12:49:37.696Z,56.29
2023-03-11T12:50:37.669Z,56.29
2023-03-11T12:51:37.700Z,57.32
2023-03-11T12:52:37.652Z,56.49